Glendale, Massachusetts
Current Conditions -  °F | °C
As of 10:39 PM on Saturday 24 Jan 2015 (Local Time) from KPSF Reporting Station
Overcast Overcast  
Wind Chill: 13°   Ceiling: 1000
Heat Index: 26°   Visibility: 8mi
Dew Point: 23°   Wind: 18mph
Humidity: 88%   Direction: 290°WNW
Pressure: 29.34"   Gusts: 24mph
Location:  42.28°N, 73.34°W
Report Text: KPSF 250339Z AUTO 29016G21KT 8SM OVC010 M03/M05 A2934 RMK AO2 T10331050
Loading
Personal Weather Stations






























Interactive Weather Map New forecast layout! Learn more

10-Day Weather Forecast

Advertisements
Track Severe Weather on mobile